Time;durP1;ratioP1;P1;durP2;ratioP2;P2;SDS_P1;SDS_P2;PMS_P1;PMS_P2;Temp;Humidity;BMP_temperature;BMP_pressure;BME280_temperature;BME280_humidity;BME280_pressure;Samples;Min_cycle;Max_cycle;Signal;HPM_P1;HPM_P2
2022/03/15 00:00:04;;;;;;;22.30;14.50;;;;;;;;;;5113978;28;20986;-55
2022/03/15 00:02:33;;;;;;;22.03;14.23;;;;;;;;;;5113874;28;20850;-55
2022/03/15 00:04:59;;;;;;;27.90;14.87;;;;;;;;;;5113957;28;20452;-53
2022/03/15 00:07:26;;;;;;;25.77;14.57;;;;;;;;;;5113826;28;20796;-56
2022/03/15 00:09:52;;;;;;;25.70;14.17;;;;;;;;;;5114000;28;20835;-54
2022/03/15 00:12:18;;;;;;;20.30;13.63;;;;;;;;;;5113923;28;20511;-55
2022/03/15 00:14:44;;;;;;;21.63;13.93;;;;;;;;;;5113693;28;20409;-53
2022/03/15 00:17:12;;;;;;;34.20;15.07;;;;;;;;;;5113775;28;20405;-54
2022/03/15 00:19:39;;;;;;;21.47;13.97;;;;;;;;;;5113661;28;20499;-52
2022/03/15 00:22:05;;;;;;;21.63;14.20;;;;;;;;;;5113677;28;20850;-52
2022/03/15 00:24:33;;;;;;;20.07;13.77;;;;;;;;;;5113632;28;20496;-51
2022/03/15 00:26:59;;;;;;;23.73;13.80;;;;;;;;;;5113678;28;20416;-51
2022/03/15 00:29:25;;;;;;;25.73;14.37;;;;;;;;;;5113481;28;20463;-52
2022/03/15 00:31:51;;;;;;;19.50;13.80;;;;;;;;;;5112234;28;20462;-52
2022/03/15 00:34:17;;;;;;;20.37;13.80;;;;;;;;;;5112201;28;20917;-53
2022/03/15 00:36:44;;;;;;;21.63;12.97;;;;;;;;;;5113442;28;20485;-52
2022/03/15 00:39:10;;;;;;;22.73;14.30;;;;;;;;;;5113496;28;20416;-55
2022/03/15 00:41:36;;;;;;;22.03;14.07;;;;;;;;;;5113333;28;20424;-53
2022/03/15 00:44:02;;;;;;;27.23;13.97;;;;;;;;;;5111901;28;20413;-56
2022/03/15 00:46:28;;;;;;;22.93;13.70;;;;;;;;;;5111909;28;20495;-55
2022/03/15 00:48:54;;;;;;;22.43;14.30;;;;;;;;;;5113193;28;20401;-53
2022/03/15 00:51:20;;;;;;;28.27;14.50;;;;;;;;;;5113381;28;20503;-55
2022/03/15 00:53:46;;;;;;;25.07;14.37;;;;;;;;;;5113323;28;20497;-53
2022/03/15 00:56:12;;;;;;;22.63;14.67;;;;;;;;;;5113199;28;20420;-52
2022/03/15 00:58:38;;;;;;;24.07;14.57;;;;;;;;;;5113432;28;20408;-56
2022/03/15 01:01:04;;;;;;;24.80;13.90;;;;;;;;;;5113151;28;20501;-54
2022/03/15 01:03:30;;;;;;;22.87;13.67;;;;;;;;;;5111922;28;20443;-56
2022/03/15 01:05:58;;;;;;;25.83;14.20;;;;;;;;;;5112781;28;20825;-53
2022/03/15 01:08:24;;;;;;;23.73;13.73;;;;;;;;;;5113188;28;20984;-56
2022/03/15 01:10:51;;;;;;;20.00;13.97;;;;;;;;;;5113028;28;20451;-54
2022/03/15 01:13:17;;;;;;;25.33;14.43;;;;;;;;;;5111969;28;20765;-53
2022/03/15 01:15:44;;;;;;;25.13;14.10;;;;;;;;;;5112843;28;20916;-52
2022/03/15 01:18:13;;;;;;;26.67;13.93;;;;;;;;;;5112719;28;20480;-51
2022/03/15 01:20:40;;;;;;;21.47;13.37;;;;;;;;;;5113256;28;21010;-53
2022/03/15 01:23:09;;;;;;;23.23;13.93;;;;;;;;;;5112700;28;20409;-52
2022/03/15 01:25:37;;;;;;;25.50;14.03;;;;;;;;;;5112391;28;20448;-52
2022/03/15 01:28:03;;;;;;;20.07;13.17;;;;;;;;;;5112741;28;20409;-55
2022/03/15 01:30:30;;;;;;;24.03;14.70;;;;;;;;;;5112671;28;20396;-53
2022/03/15 01:32:56;;;;;;;26.20;14.17;;;;;;;;;;5112456;28;20412;-53
2022/03/15 01:35:22;;;;;;;27.20;14.93;;;;;;;;;;5111147;28;20409;-60
2022/03/15 01:37:48;;;;;;;26.10;13.63;;;;;;;;;;5112421;28;20450;-59
2022/03/15 01:40:14;;;;;;;27.33;13.47;;;;;;;;;;5112454;28;20893;-59
2022/03/15 01:42:41;;;;;;;24.63;13.70;;;;;;;;;;5112488;28;20914;-61
2022/03/15 01:45:08;;;;;;;23.07;13.50;;;;;;;;;;5112514;28;20452;-51
2022/03/15 01:47:34;;;;;;;27.43;13.60;;;;;;;;;;5112182;28;20524;-52
2022/03/15 01:50:00;;;;;;;26.60;13.50;;;;;;;;;;5112257;28;20485;-53
2022/03/15 01:52:26;;;;;;;22.73;13.73;;;;;;;;;;5112225;28;20401;-55
2022/03/15 01:54:52;;;;;;;23.60;13.33;;;;;;;;;;5111085;28;20490;-55
2022/03/15 01:57:18;;;;;;;19.80;12.50;;;;;;;;;;5110934;28;20442;-52
2022/03/15 01:59:45;;;;;;;22.60;12.73;;;;;;;;;;5112273;28;20768;-52
2022/03/15 02:02:12;;;;;;;23.73;13.37;;;;;;;;;;5112333;28;20457;-52
2022/03/15 02:04:38;;;;;;;26.03;13.47;;;;;;;;;;5112346;28;20400;-52
2022/03/15 02:07:04;;;;;;;23.57;12.90;;;;;;;;;;5112092;28;20417;-54
2022/03/15 02:09:30;;;;;;;25.13;12.90;;;;;;;;;;5112332;28;20461;-53
2022/03/15 02:11:58;;;;;;;25.70;13.40;;;;;;;;;;5112123;28;20427;-51
2022/03/15 02:14:24;;;;;;;21.60;12.17;;;;;;;;;;5112217;28;20427;-52
2022/03/15 02:16:53;;;;;;;24.80;13.53;;;;;;;;;;5114636;28;20413;-52
2022/03/15 02:19:20;;;;;;;22.83;12.70;;;;;;;;;;5116079;28;20478;-53
2022/03/15 02:21:46;;;;;;;28.00;13.80;;;;;;;;;;5116186;28;20916;-54
2022/03/15 02:24:12;;;;;;;19.90;12.70;;;;;;;;;;5116169;28;20409;-55
2022/03/15 02:26:39;;;;;;;20.50;12.50;;;;;;;;;;5116229;28;20537;-52
2022/03/15 02:29:05;;;;;;;26.80;13.90;;;;;;;;;;5115918;28;20458;-55
2022/03/15 02:31:31;;;;;;;20.13;12.50;;;;;;;;;;5115841;28;20409;-57
2022/03/15 02:33:57;;;;;;;18.50;11.93;;;;;;;;;;5116046;28;20407;-58
2022/03/15 02:36:23;;;;;;;24.20;12.40;;;;;;;;;;5115928;28;20905;-57
2022/03/15 02:38:49;;;;;;;24.23;12.50;;;;;;;;;;5115898;28;20429;-52
2022/03/15 02:41:15;;;;;;;23.00;11.77;;;;;;;;;;5114507;28;20787;-53
2022/03/15 02:43:42;;;;;;;24.13;12.87;;;;;;;;;;5114697;28;20415;-55
2022/03/15 02:46:08;;;;;;;18.50;11.60;;;;;;;;;;5115855;28;20528;-50
2022/03/15 02:48:35;;;;;;;20.90;12.37;;;;;;;;;;5115790;28;20484;-54
2022/03/15 02:51:08;;;;;;;18.43;12.60;;;;;;;;;;5115648;28;20404;-54
2022/03/15 02:53:34;;;;;;;20.30;12.50;;;;;;;;;;5114207;28;20888;-51
2022/03/15 02:56:10;;;;;;;20.73;12.80;;;;;;;;;;5115618;28;20501;-51
2022/03/15 02:58:36;;;;;;;24.57;13.67;;;;;;;;;;5115529;28;20427;-52
2022/03/15 03:01:02;;;;;;;21.57;13.13;;;;;;;;;;5115378;28;20401;-54
2022/03/15 03:03:28;;;;;;;21.20;12.70;;;;;;;;;;5115373;28;20492;-56
2022/03/15 03:05:54;;;;;;;18.00;12.10;;;;;;;;;;5115206;28;20460;-54
2022/03/15 03:08:27;;;;;;;21.53;12.67;;;;;;;;;;5115410;28;20409;-51
2022/03/15 03:10:53;;;;;;;20.27;12.93;;;;;;;;;;5115250;28;20450;-55
2022/03/15 03:13:26;;;;;;;23.40;12.63;;;;;;;;;;5115265;28;20478;-53
2022/03/15 03:15:54;;;;;;;22.20;13.03;;;;;;;;;;5113768;28;20440;-54
2022/03/15 03:18:20;;;;;;;20.30;12.90;;;;;;;;;;5114863;28;20506;-52
2022/03/15 03:20:47;;;;;;;20.13;12.57;;;;;;;;;;5115220;28;20417;-51
2022/03/15 03:23:14;;;;;;;29.57;14.30;;;;;;;;;;5115218;28;20397;-52
2022/03/15 03:25:41;;;;;;;24.17;13.00;;;;;;;;;;5115286;28;20476;-53
2022/03/15 03:28:07;;;;;;;22.47;11.83;;;;;;;;;;5113758;27;20401;-54
2022/03/15 03:30:36;;;;;;;17.97;12.40;;;;;;;;;;5114856;28;20415;-53
2022/03/15 03:33:03;;;;;;;19.63;12.07;;;;;;;;;;5114838;28;20401;-51
2022/03/15 03:35:29;;;;;;;19.63;11.80;;;;;;;;;;5114639;28;20409;-55
2022/03/15 03:37:55;;;;;;;20.90;12.47;;;;;;;;;;5114761;28;20404;-54
2022/03/15 03:40:21;;;;;;;18.53;12.20;;;;;;;;;;5114700;28;20496;-54
2022/03/15 03:42:47;;;;;;;17.53;12.00;;;;;;;;;;5114648;28;20401;-52
2022/03/15 03:45:13;;;;;;;18.07;11.87;;;;;;;;;;5113307;28;20867;-56
2022/03/15 03:47:40;;;;;;;19.20;12.70;;;;;;;;;;5114798;28;20424;-53
2022/03/15 03:50:09;;;;;;;23.37;12.10;;;;;;;;;;5114547;28;20453;-53
2022/03/15 03:52:35;;;;;;;20.30;12.10;;;;;;;;;;5113376;28;20778;-59
2022/03/15 03:55:02;;;;;;;20.90;12.23;;;;;;;;;;5114352;28;20405;-51
2022/03/15 03:57:31;;;;;;;16.87;11.67;;;;;;;;;;5114352;28;20413;-55
2022/03/15 03:59:57;;;;;;;23.40;12.60;;;;;;;;;;5114147;28;20393;-56
2022/03/15 04:02:25;;;;;;;19.73;11.83;;;;;;;;;;5113004;28;20449;-56
2022/03/15 04:04:52;;;;;;;20.07;12.00;;;;;;;;;;5114013;28;20453;-57
2022/03/15 04:07:18;;;;;;;19.23;12.20;;;;;;;;;;5114155;28;20413;-53
2022/03/15 04:09:44;;;;;;;18.93;10.57;;;;;;;;;;5112794;28;20419;-54
2022/03/15 04:12:10;;;;;;;19.57;11.90;;;;;;;;;;5114030;28;20436;-53
2022/03/15 04:14:36;;;;;;;23.23;12.10;;;;;;;;;;5112085;28;20443;-53
2022/03/15 04:17:03;;;;;;;18.97;11.83;;;;;;;;;;5113737;28;20496;-53
2022/03/15 04:19:30;;;;;;;17.77;11.50;;;;;;;;;;5113525;28;20813;-55
2022/03/15 04:21:56;;;;;;;19.03;11.97;;;;;;;;;;5113766;28;20402;-53
2022/03/15 04:24:22;;;;;;;24.90;11.83;;;;;;;;;;5113674;28;20397;-54
2022/03/15 04:26:51;;;;;;;19.00;11.57;;;;;;;;;;5112243;28;20468;-55
2022/03/15 04:29:17;;;;;;;16.83;11.33;;;;;;;;;;5112212;28;20409;-54
2022/03/15 04:31:44;;;;;;;20.60;12.40;;;;;;;;;;5113551;28;20424;-52
2022/03/15 04:34:10;;;;;;;20.90;11.60;;;;;;;;;;5113704;28;20404;-55
2022/03/15 04:36:36;;;;;;;17.50;11.43;;;;;;;;;;5113192;28;20405;-55
2022/03/15 04:39:03;;;;;;;18.00;11.10;;;;;;;;;;5113179;28;20423;-55
2022/03/15 04:41:29;;;;;;;16.53;11.40;;;;;;;;;;5113243;28;20450;-56
2022/03/15 04:43:56;;;;;;;19.33;11.63;;;;;;;;;;5113220;28;20407;-55
2022/03/15 04:46:22;;;;;;;16.90;11.30;;;;;;;;;;5113228;28;20464;-55
2022/03/15 04:48:48;;;;;;;17.03;11.40;;;;;;;;;;5111467;28;20452;-56
2022/03/15 04:51:14;;;;;;;20.17;12.10;;;;;;;;;;5113257;28;20653;-54
2022/03/15 04:53:43;;;;;;;16.50;11.17;;;;;;;;;;5113205;28;20431;-55
2022/03/15 04:56:09;;;;;;;18.30;10.90;;;;;;;;;;5113238;28;20396;-54
2022/03/15 04:58:35;;;;;;;17.67;11.50;;;;;;;;;;5112997;28;20423;-53
2022/03/15 05:01:01;;;;;;;21.30;10.57;;;;;;;;;;5113006;28;20897;-55
2022/03/15 05:03:27;;;;;;;16.03;10.83;;;;;;;;;;5113077;28;20420;-54
2022/03/15 05:05:53;;;;;;;16.33;11.13;;;;;;;;;;5111645;28;20476;-53
2022/03/15 05:08:19;;;;;;;22.33;12.03;;;;;;;;;;5112947;28;20492;-54
2022/03/15 05:13:30;;;;;;;15.20;10.97;;;;;;;;;;5113097;28;20438;-55
2022/03/15 05:15:56;;;;;;;18.30;11.60;;;;;;;;;;5112803;28;20416;-58
2022/03/15 05:18:23;;;;;;;16.83;10.67;;;;;;;;;;5112490;28;20452;-55
2022/03/15 05:20:49;;;;;;;18.80;11.40;;;;;;;;;;5112860;28;20409;-54
2022/03/15 05:23:15;;;;;;;18.80;11.57;;;;;;;;;;5111372;28;20439;-55
2022/03/15 05:25:41;;;;;;;16.70;11.40;;;;;;;;;;5111612;28;20495;-58
2022/03/15 05:28:08;;;;;;;15.47;10.73;;;;;;;;;;5112704;28;20897;-55
2022/03/15 05:30:35;;;;;;;23.73;11.50;;;;;;;;;;5112597;28;20416;-55
2022/03/15 05:33:01;;;;;;;14.63;10.90;;;;;;;;;;5112642;28;20431;-55
2022/03/15 05:35:27;;;;;;;23.70;11.67;;;;;;;;;;5112664;28;20432;-54
2022/03/15 05:37:53;;;;;;;16.80;11.23;;;;;;;;;;5112615;28;20405;-54
2022/03/15 05:40:20;;;;;;;16.73;10.50;;;;;;;;;;5111575;28;20412;-54
2022/03/15 05:42:46;;;;;;;17.37;11.47;;;;;;;;;;5112463;28;20405;-54
2022/03/15 05:45:12;;;;;;;18.73;11.97;;;;;;;;;;5111005;28;20783;-52
2022/03/15 05:47:38;;;;;;;17.10;11.20;;;;;;;;;;5112352;28;20401;-56
2022/03/15 05:50:05;;;;;;;19.10;11.90;;;;;;;;;;5111843;28;20412;-53
2022/03/15 05:52:31;;;;;;;17.40;11.40;;;;;;;;;;5111934;28;20762;-54
2022/03/15 05:55:00;;;;;;;16.43;11.97;;;;;;;;;;5112012;28;20927;-57
2022/03/15 05:57:26;;;;;;;22.33;12.43;;;;;;;;;;5112039;28;20424;-56
2022/03/15 05:59:52;;;;;;;16.90;11.07;;;;;;;;;;5111421;28;20437;-57
2022/03/15 06:02:18;;;;;;;15.43;11.20;;;;;;;;;;5111481;28;20415;-52
2022/03/15 06:04:45;;;;;;;17.00;11.53;;;;;;;;;;5109863;28;20796;-59
2022/03/15 06:07:11;;;;;;;24.97;15.03;;;;;;;;;;5111455;28;20830;-59
2022/03/15 06:09:40;;;;;;;20.63;12.60;;;;;;;;;;5111276;28;20396;-54
2022/03/15 06:12:07;;;;;;;18.00;12.30;;;;;;;;;;5111191;28;20496;-61
2022/03/15 06:14:33;;;;;;;15.50;10.90;;;;;;;;;;5111170;28;20415;-51
2022/03/15 06:16:59;;;;;;;15.87;11.13;;;;;;;;;;5111082;28;20808;-55
2022/03/15 06:19:25;;;;;;;18.57;10.80;;;;;;;;;;5110971;28;20453;-58
2022/03/15 06:21:51;;;;;;;13.53;10.20;;;;;;;;;;5111171;28;20396;-54
2022/03/15 06:24:17;;;;;;;14.23;10.43;;;;;;;;;;5109480;28;20951;-52
2022/03/15 06:26:47;;;;;;;21.03;10.80;;;;;;;;;;5110850;28;21070;-57
2022/03/15 06:29:13;;;;;;;17.50;11.37;;;;;;;;;;5111743;28;20401;-55
2022/03/15 06:31:39;;;;;;;16.17;10.70;;;;;;;;;;5112258;28;20412;-56
2022/03/15 06:34:08;;;;;;;17.17;12.13;;;;;;;;;;5111776;28;20416;-57
2022/03/15 06:36:37;;;;;;;15.67;10.50;;;;;;;;;;5111983;28;20397;-57
2022/03/15 06:39:05;;;;;;;17.43;11.20;;;;;;;;;;5111744;28;20750;-56
2022/03/15 06:41:31;;;;;;;18.70;11.07;;;;;;;;;;5111786;28;20415;-57
2022/03/15 06:43:57;;;;;;;14.97;10.43;;;;;;;;;;5111908;28;20458;-55
2022/03/15 06:46:23;;;;;;;16.33;11.40;;;;;;;;;;5111662;28;20464;-54
2022/03/15 06:48:49;;;;;;;19.33;10.60;;;;;;;;;;5111714;28;20401;-55
2022/03/15 06:51:15;;;;;;;20.73;10.97;;;;;;;;;;5111711;28;20428;-58
2022/03/15 06:53:42;;;;;;;13.40;9.80;;;;;;;;;;5111863;28;20401;-54
2022/03/15 06:56:08;;;;;;;15.63;10.73;;;;;;;;;;5111858;28;20409;-58
2022/03/15 06:58:34;;;;;;;13.63;10.17;;;;;;;;;;5110334;28;20466;-55
2022/03/15 07:01:00;;;;;;;13.63;9.90;;;;;;;;;;5111662;28;20848;-53
2022/03/15 07:03:26;;;;;;;13.70;10.60;;;;;;;;;;5113459;28;20413;-57
2022/03/15 07:05:52;;;;;;;14.10;10.30;;;;;;;;;;5114195;28;20909;-56
2022/03/15 07:08:18;;;;;;;15.73;10.23;;;;;;;;;;5115201;28;20887;-60
2022/03/15 07:10:45;;;;;;;22.50;10.40;;;;;;;;;;5113830;28;20424;-60
2022/03/15 07:13:11;;;;;;;13.10;9.87;;;;;;;;;;5115403;28;20877;-55
2022/03/15 07:15:37;;;;;;;13.77;11.10;;;;;;;;;;5115120;28;20424;-57
2022/03/15 07:18:03;;;;;;;15.80;10.97;;;;;;;;;;5114868;28;20461;-58
2022/03/15 07:20:29;;;;;;;15.37;9.90;;;;;;;;;;5115067;28;20765;-57
2022/03/15 07:22:55;;;;;;;13.30;9.80;;;;;;;;;;5113756;28;20417;-55
2022/03/15 07:25:21;;;;;;;15.47;10.50;;;;;;;;;;5114883;28;20440;-57
2022/03/15 07:27:48;;;;;;;16.40;10.30;;;;;;;;;;5114863;28;20781;-58
2022/03/15 07:30:14;;;;;;;15.50;10.43;;;;;;;;;;5114740;28;20397;-52
2022/03/15 07:32:41;;;;;;;17.30;11.50;;;;;;;;;;5113640;28;20777;-59
2022/03/15 07:35:07;;;;;;;30.77;17.93;;;;;;;;;;5113194;28;20765;-57
2022/03/15 07:37:33;;;;;;;23.87;16.07;;;;;;;;;;5114811;28;20925;-56
2022/03/15 07:39:59;;;;;;;17.23;11.70;;;;;;;;;;5114465;28;20393;-59
2022/03/15 07:42:26;;;;;;;14.60;10.60;;;;;;;;;;5113209;28;20423;-53
2022/03/15 07:44:52;;;;;;;16.87;10.50;;;;;;;;;;5114328;28;20908;-53
2022/03/15 07:47:18;;;;;;;17.13;11.10;;;;;;;;;;5114488;28;20897;-54
2022/03/15 07:49:47;;;;;;;12.70;10.00;;;;;;;;;;5114482;28;20440;-55
2022/03/15 07:52:18;;;;;;;18.37;10.10;;;;;;;;;;5114453;28;20417;-60
2022/03/15 07:54:46;;;;;;;14.00;10.77;;;;;;;;;;5114297;28;20392;-59
2022/03/15 07:57:12;;;;;;;14.50;10.70;;;;;;;;;;5113077;28;20409;-54
2022/03/15 07:59:38;;;;;;;14.23;10.27;;;;;;;;;;5114498;28;20428;-55
2022/03/15 08:02:04;;;;;;;12.77;9.97;;;;;;;;;;5114156;28;20491;-55
2022/03/15 08:04:30;;;;;;;15.30;10.90;;;;;;;;;;5112825;28;20467;-52
2022/03/15 08:06:56;;;;;;;11.23;9.93;;;;;;;;;;5114045;28;20980;-55
2022/03/15 08:09:22;;;;;;;14.10;10.93;;;;;;;;;;5114052;28;20454;-54
2022/03/15 08:11:48;;;;;;;12.20;10.13;;;;;;;;;;5110949;28;20507;-56
2022/03/15 08:14:17;;;;;;;12.60;10.23;;;;;;;;;;5109492;28;20404;-54
2022/03/15 08:16:43;;;;;;;12.53;10.97;;;;;;;;;;5112841;28;20413;-52
2022/03/15 08:19:09;;;;;;;16.10;10.33;;;;;;;;;;5113112;28;20681;-54
2022/03/15 08:21:38;;;;;;;18.40;11.03;;;;;;;;;;5112946;28;20516;-55
2022/03/15 08:24:04;;;;;;;20.23;11.00;;;;;;;;;;5113181;28;20496;-54
2022/03/15 08:26:30;;;;;;;17.87;11.53;;;;;;;;;;5113202;28;20510;-56
2022/03/15 08:28:56;;;;;;;14.90;11.30;;;;;;;;;;5112856;28;20913;-56
2022/03/15 08:31:23;;;;;;;17.43;11.90;;;;;;;;;;5113347;28;20487;-55
2022/03/15 08:33:52;;;;;;;17.23;10.80;;;;;;;;;;5112479;28;20401;-54
2022/03/15 08:36:18;;;;;;;15.60;11.90;;;;;;;;;;5112939;28;20413;-55
2022/03/15 08:38:44;;;;;;;13.70;10.30;;;;;;;;;;5112818;28;20405;-53
2022/03/15 08:41:11;;;;;;;13.70;10.80;;;;;;;;;;5113121;28;20413;-53
2022/03/15 08:43:37;;;;;;;13.13;10.43;;;;;;;;;;5112542;28;20400;-53
2022/03/15 08:46:03;;;;;;;11.43;9.80;;;;;;;;;;5112550;28;20480;-54
2022/03/15 08:48:29;;;;;;;14.53;11.77;;;;;;;;;;5112601;28;20811;-56
2022/03/15 08:50:56;;;;;;;14.77;11.53;;;;;;;;;;5094137;28;20436;-55
2022/03/15 08:53:22;;;;;;;18.60;12.67;;;;;;;;;;5094799;28;20420;-54
2022/03/15 08:55:48;;;;;;;27.63;12.30;;;;;;;;;;5112454;28;20451;-57
2022/03/15 08:58:14;;;;;;;15.13;12.37;;;;;;;;;;5088126;28;20421;-58
2022/03/15 09:00:40;;;;;;;22.00;11.93;;;;;;;;;;5100901;28;20422;-58
2022/03/15 09:03:06;;;;;;;15.60;12.60;;;;;;;;;;5106250;28;20505;-58
2022/03/15 09:05:32;;;;;;;17.33;12.57;;;;;;;;;;5112401;28;20576;-59
2022/03/15 09:07:58;;;;;;;20.53;12.60;;;;;;;;;;5093084;28;20933;-54
2022/03/15 09:10:25;;;;;;;15.20;11.83;;;;;;;;;;5092094;28;20390;-55
2022/03/15 09:12:53;;;;;;;15.93;11.23;;;;;;;;;;5091940;28;20611;-57
2022/03/15 09:15:19;;;;;;;13.80;10.30;;;;;;;;;;5101063;28;20407;-59
2022/03/15 09:17:45;;;;;;;13.87;11.33;;;;;;;;;;5112181;28;20412;-53
2022/03/15 09:20:12;;;;;;;13.27;10.40;;;;;;;;;;5112348;28;20784;-54
2022/03/15 09:22:38;;;;;;;12.83;10.60;;;;;;;;;;5112354;28;20416;-53
2022/03/15 09:25:05;;;;;;;16.70;10.57;;;;;;;;;;5111669;28;20401;-57
2022/03/15 09:27:34;;;;;;;11.93;9.97;;;;;;;;;;5112054;28;20464;-52
2022/03/15 09:30:00;;;;;;;12.20;10.10;;;;;;;;;;5112039;28;20401;-58
2022/03/15 09:32:27;;;;;;;13.33;10.10;;;;;;;;;;5111843;28;20940;-54
2022/03/15 09:34:54;;;;;;;11.33;9.37;;;;;;;;;;5112095;28;20495;-53
2022/03/15 09:37:20;;;;;;;13.17;10.10;;;;;;;;;;5112089;28;20405;-52
2022/03/15 09:39:47;;;;;;;11.13;9.63;;;;;;;;;;5111569;28;20412;-55
2022/03/15 09:42:13;;;;;;;11.60;9.37;;;;;;;;;;5111952;28;20848;-54
2022/03/15 09:44:41;;;;;;;17.80;10.17;;;;;;;;;;5111871;28;20405;-53
2022/03/15 09:47:08;;;;;;;12.80;10.33;;;;;;;;;;5111874;28;20936;-57
2022/03/15 09:49:34;;;;;;;13.50;10.00;;;;;;;;;;5093393;28;20504;-54
2022/03/15 09:52:01;;;;;;;9.67;8.77;;;;;;;;;;5093344;28;20789;-56
2022/03/15 09:54:32;;;;;;;13.33;10.80;;;;;;;;;;5111660;28;20971;-57
2022/03/15 09:56:59;;;;;;;10.93;9.23;;;;;;;;;;5111860;28;20400;-58
2022/03/15 09:59:27;;;;;;;13.80;8.57;;;;;;;;;;5111748;28;20428;-55
2022/03/15 10:01:54;;;;;;;12.17;9.33;;;;;;;;;;5093173;28;20432;-58
2022/03/15 10:04:22;;;;;;;13.17;9.63;;;;;;;;;;5111652;28;20458;-58
2022/03/15 10:06:48;;;;;;;12.20;9.13;;;;;;;;;;5081517;28;20472;-51
2022/03/15 10:09:17;;;;;;;13.87;9.67;;;;;;;;;;5072959;28;20428;-54
2022/03/15 10:11:43;;;;;;;18.13;12.57;;;;;;;;;;5072809;28;20413;-54
2022/03/15 10:14:10;;;;;;;15.10;10.70;;;;;;;;;;5091216;28;20902;-58
2022/03/15 10:16:40;;;;;;;13.03;10.40;;;;;;;;;;5090996;28;20455;-59
2022/03/15 10:19:11;;;;;;;18.00;10.43;;;;;;;;;;5090959;28;20864;-58
2022/03/15 10:21:48;;;;;;;14.53;10.57;;;;;;;;;;5110284;28;20461;-57
2022/03/15 10:24:32;;;;;;;10.37;9.37;;;;;;;;;;5111255;28;20436;-57
2022/03/15 10:27:02;;;;;;;17.63;10.10;;;;;;;;;;5111287;28;20907;-57
2022/03/15 10:29:29;;;;;;;13.73;10.37;;;;;;;;;;5111130;28;20477;-59
2022/03/15 10:31:55;;;;;;;15.83;10.00;;;;;;;;;;5092924;28;20412;-58
2022/03/15 10:34:22;;;;;;;17.87;9.90;;;;;;;;;;5092899;28;20465;-56
2022/03/15 10:36:49;;;;;;;11.83;9.90;;;;;;;;;;5111891;28;20447;-57
2022/03/15 10:39:17;;;;;;;16.30;11.10;;;;;;;;;;5096764;28;20416;-58
2022/03/15 10:41:51;;;;;;;10.17;8.97;;;;;;;;;;5114805;28;20405;-59
2022/03/15 10:44:17;;;;;;;10.63;9.53;;;;;;;;;;5115255;28;20448;-63
2022/03/15 10:46:43;;;;;;;10.37;9.20;;;;;;;;;;5115050;28;20743;-56
2022/03/15 10:49:09;;;;;;;10.20;8.63;;;;;;;;;;5114963;28;20401;-58
2022/03/15 10:51:38;;;;;;;9.83;8.90;;;;;;;;;;5114783;28;20441;-57
2022/03/15 10:54:09;;;;;;;11.90;9.40;;;;;;;;;;5114919;28;20405;-61
2022/03/15 10:56:35;;;;;;;17.40;10.50;;;;;;;;;;5115026;28;20897;-55
2022/03/15 10:59:03;;;;;;;9.50;8.00;;;;;;;;;;5114628;28;20420;-56
2022/03/15 11:01:35;;;;;;;11.53;8.93;;;;;;;;;;5114794;28;20393;-60
2022/03/15 11:04:06;;;;;;;14.33;9.43;;;;;;;;;;5114443;28;20598;-63
2022/03/15 11:06:39;;;;;;;10.07;8.97;;;;;;;;;;5110282;28;20642;-60
2022/03/15 11:09:24;;;;;;;10.33;8.50;;;;;;;;;;5114669;28;20436;-59
2022/03/15 11:12:05;;;;;;;8.00;7.20;;;;;;;;;;5114597;28;20754;-60
2022/03/15 11:14:45;;;;;;;8.90;7.60;;;;;;;;;;5114614;28;20818;-64
2022/03/15 11:17:18;;;;;;;9.13;8.23;;;;;;;;;;5114828;28;20426;-59
2022/03/15 11:19:48;;;;;;;8.83;8.00;;;;;;;;;;5114062;28;20506;-54
2022/03/15 11:22:15;;;;;;;9.03;7.83;;;;;;;;;;5114467;28;20436;-59
2022/03/15 11:24:46;;;;;;;9.13;8.30;;;;;;;;;;5114380;28;20404;-60
2022/03/15 11:27:14;;;;;;;8.40;7.53;;;;;;;;;;5114576;28;20556;-58
2022/03/15 11:29:42;;;;;;;8.40;7.60;;;;;;;;;;5114279;28;20416;-56
2022/03/15 11:32:08;;;;;;;8.43;7.60;;;;;;;;;;5114396;28;20415;-55
2022/03/15 11:34:35;;;;;;;8.80;8.00;;;;;;;;;;5114037;28;20409;-59
2022/03/15 11:37:02;;;;;;;7.73;7.13;;;;;;;;;;5114053;28;20413;-56
2022/03/15 11:39:28;;;;;;;7.70;7.00;;;;;;;;;;5114247;28;20479;-58
2022/03/15 11:41:54;;;;;;;7.80;7.10;;;;;;;;;;5113923;28;20984;-58
2022/03/15 11:44:26;;;;;;;8.70;7.87;;;;;;;;;;5113987;28;20893;-61
2022/03/15 11:47:14;;;;;;;9.70;8.67;;;;;;;;;;5114046;28;20468;-57
2022/03/15 11:49:54;;;;;;;8.13;7.37;;;;;;;;;;5063545;28;20488;-56
2022/03/15 11:52:48;;;;;;;8.37;7.67;;;;;;;;;;5114005;28;20405;-58
2022/03/15 11:55:34;;;;;;;7.80;7.00;;;;;;;;;;5114000;28;20492;-55
2022/03/15 11:58:03;;;;;;;9.23;7.80;;;;;;;;;;5113809;28;20769;-60
2022/03/15 12:00:42;;;;;;;9.67;8.10;;;;;;;;;;5113646;28;20916;-55
2022/03/15 12:03:09;;;;;;;9.00;8.07;;;;;;;;;;5114066;28;20908;-58
2022/03/15 12:05:45;;;;;;;9.83;8.00;;;;;;;;;;5113458;28;20544;-58
2022/03/15 12:08:13;;;;;;;11.70;8.83;;;;;;;;;;5113710;28;20520;-57
2022/03/15 12:10:44;;;;;;;9.87;8.37;;;;;;;;;;5113423;28;20429;-57
2022/03/15 12:13:11;;;;;;;8.70;7.90;;;;;;;;;;5095147;28;20425;-56
2022/03/15 12:15:38;;;;;;;10.30;7.77;;;;;;;;;;5113407;28;20404;-57
2022/03/15 12:21:01;;;;;;;13.43;8.30;;;;;;;;;;5112828;28;20409;-55
2022/03/15 12:23:27;;;;;;;11.20;8.90;;;;;;;;;;5094871;28;20417;-55
2022/03/15 12:25:54;;;;;;;13.87;8.70;;;;;;;;;;5094377;28;20951;-54
2022/03/15 12:28:28;;;;;;;11.10;8.03;;;;;;;;;;5111737;28;20405;-58
2022/03/15 12:30:54;;;;;;;9.40;7.90;;;;;;;;;;5111855;28;20753;-55
2022/03/15 12:33:27;;;;;;;8.80;7.90;;;;;;;;;;5111667;28;20397;-55
2022/03/15 12:36:01;;;;;;;15.43;8.47;;;;;;;;;;5111794;28;20397;-56
2022/03/15 12:38:39;;;;;;;8.47;7.60;;;;;;;;;;5111760;28;21019;-55
2022/03/15 12:41:06;;;;;;;9.00;7.90;;;;;;;;;;5111944;28;20909;-58
2022/03/15 12:43:32;;;;;;;9.53;7.90;;;;;;;;;;5090596;28;20443;-58
2022/03/15 12:46:08;;;;;;;10.30;9.27;;;;;;;;;;5100188;28;20497;-56
2022/03/15 12:48:38;;;;;;;9.40;8.40;;;;;;;;;;5107497;28;20753;-55
2022/03/15 12:51:05;;;;;;;10.20;8.30;;;;;;;;;;5094918;28;20836;-57
2022/03/15 12:53:37;;;;;;;9.03;8.20;;;;;;;;;;5112486;28;20409;-57
2022/03/15 12:56:03;;;;;;;16.70;9.40;;;;;;;;;;5112567;28;20405;-56
2022/03/15 12:58:30;;;;;;;9.57;8.67;;;;;;;;;;5112522;28;20401;-57
2022/03/15 13:00:56;;;;;;;10.60;9.50;;;;;;;;;;5100604;28;20414;-54
2022/03/15 13:03:23;;;;;;;10.63;9.53;;;;;;;;;;5092286;28;20870;-62
2022/03/15 13:05:51;;;;;;;10.33;9.27;;;;;;;;;;5091851;28;20957;-53
2022/03/15 13:08:17;;;;;;;12.27;9.70;;;;;;;;;;5091975;28;20884;-57
2022/03/15 13:10:47;;;;;;;9.70;8.70;;;;;;;;;;5091893;28;20394;-54
2022/03/15 13:13:19;;;;;;;11.13;9.17;;;;;;;;;;5091891;28;20421;-57
2022/03/15 13:15:56;;;;;;;9.80;8.90;;;;;;;;;;5091930;28;20417;-58
2022/03/15 13:18:23;;;;;;;9.53;8.40;;;;;;;;;;5106277;28;20460;-56
2022/03/15 13:20:52;;;;;;;10.50;8.00;;;;;;;;;;5112053;28;20401;-55
2022/03/15 13:23:18;;;;;;;8.70;7.80;;;;;;;;;;5112385;28;20751;-58
2022/03/15 13:25:48;;;;;;;11.10;8.40;;;;;;;;;;5093519;28;20456;-53
2022/03/15 13:28:28;;;;;;;10.50;8.67;;;;;;;;;;5112191;28;20436;-54
2022/03/15 13:30:57;;;;;;;12.57;9.60;;;;;;;;;;5112073;28;20401;-55
2022/03/15 13:33:29;;;;;;;14.10;10.10;;;;;;;;;;5112178;28;20417;-53
2022/03/15 13:36:01;;;;;;;11.57;9.97;;;;;;;;;;5112098;28;20897;-58
2022/03/15 13:38:28;;;;;;;13.80;9.90;;;;;;;;;;5112100;28;20919;-52
2022/03/15 13:40:56;;;;;;;11.30;9.27;;;;;;;;;;5111935;28;20411;-56
2022/03/15 13:43:23;;;;;;;10.13;9.13;;;;;;;;;;5111992;28;20409;-56
2022/03/15 13:45:50;;;;;;;11.50;9.30;;;;;;;;;;5111888;28;20494;-52
2022/03/15 13:48:32;;;;;;;15.17;10.40;;;;;;;;;;5111929;28;20429;-58
2022/03/15 13:51:04;;;;;;;13.23;10.20;;;;;;;;;;5093320;28;20793;-56
2022/03/15 13:53:31;;;;;;;10.60;9.43;;;;;;;;;;5093423;28;20422;-55
2022/03/15 13:56:07;;;;;;;10.80;9.30;;;;;;;;;;5111774;28;20405;-54
2022/03/15 13:58:33;;;;;;;17.73;10.83;;;;;;;;;;5111758;28;20514;-55
2022/03/15 14:01:00;;;;;;;15.77;9.97;;;;;;;;;;5111524;28;20404;-52
2022/03/15 14:03:30;;;;;;;15.67;11.63;;;;;;;;;;5111792;28;20492;-54
2022/03/15 14:06:00;;;;;;;14.23;10.70;;;;;;;;;;5111677;28;20938;-53
2022/03/15 14:08:26;;;;;;;13.73;11.40;;;;;;;;;;5093120;28;20417;-53
2022/03/15 14:10:54;;;;;;;13.20;11.13;;;;;;;;;;5093317;28;20405;-62
2022/03/15 14:13:22;;;;;;;14.47;11.40;;;;;;;;;;5114910;28;20405;-57
2022/03/15 14:15:49;;;;;;;15.43;12.47;;;;;;;;;;5115764;28;20487;-54
2022/03/15 14:18:26;;;;;;;15.00;11.57;;;;;;;;;;5115383;28;20527;-56
2022/03/15 14:20:52;;;;;;;13.17;11.20;;;;;;;;;;5115455;28;20416;-52
2022/03/15 14:23:21;;;;;;;18.63;10.57;;;;;;;;;;5097021;28;20461;-58
2022/03/15 14:25:50;;;;;;;11.13;10.03;;;;;;;;;;5115390;28;20467;-56
2022/03/15 14:28:18;;;;;;;13.20;11.07;;;;;;;;;;5097243;28;20486;-57